EGLCEGPF

Guest
Details From EGLC - London City
To EGPF - Glasgow
Flight Number -
Tags Generated
Created
Modified
Stats Distance 307 nm / 568 km
Max Altitude 0 ft / 0 m
Waypoints 3
Social Downloads 2
Likes 0
Share VATSIM

Download

Looking for another format? Having issues loading an existing format? Contact us
Advertisement - Login to hide

Notes

Generated

Route

EGLC TRN41 EGPF

ID Type Via Altitude Latitude Longitude Leg Dist Tot Dist Heading (true) Name
O EGLC APT - 0 ft / 0 m 51.50558˚ 0.04414˚ - 0 nm - -
TRN41 FIX - 0 ft / 0 m 55.71624˚ -4.26392˚ 295 nm 295 nm 330° / 327° -
O EGPF APT - 0 ft / 0 m 55.87222˚ -4.44472˚ 11 nm 306 nm 327° / 327° -

Altitude Profile

Advertisement - Login to hide

Weather


0- 5 10 15 20 25 30 35+ Temperature / ° C

Clouds and Precipitation
Forecast for 2018-05-21 18:00 UTC. Updated 19 minutes ago

Ground ~20,000 ft ~40,000 ft Winds

EGLC

Details ICAO EGLC (LCY)
Name London City
Region United Kingdom
Timezone Europe/London (UTC+1.0)
Stats Elevation 19 ft / 6 m (AMSL)
Location 51.505231° 0.055175°
Runways 1
Magnetic Variation 0.321° W

METAR

EGLC 211450Z AUTO 06006KT 020V100 9999 NCD 20/12 Q1014

Decode

TAF

Not found

Departure Runways

ID Width Length Bearing (true) Bearing (mag) Surface Threshold Offset Overrun Length
09 98 ft / 30 m 4,931 ft / 1,503 m 92.89° 93.21° Concrete 322 ft / 98 m 164 ft / 50 m
27 98 ft / 30 m 4,931 ft / 1,503 m 272.91° 273.23° Concrete 243 ft / 74 m 279 ft / 85 m

EGPF

Details ICAO EGPF (GLA)
Name Glasgow
Region United Kingdom
Timezone Europe/London (UTC+1.0)
Stats Elevation 26 ft / 8 m (AMSL)
Location 55.871728° -4.433648°
Runways 1
Magnetic Variation 2.657° W

METAR

EGPF 211450Z AUTO 22013KT 9999 NCD 17/11 Q1019

Decode

TAF

TAF EGPF 211108Z 2112/2212 22005KT 9999 SCT035 PROB30 TEMPO 2112/2118 BKN012 BECMG 2200/2203 08010KT TEMPO 2200/2208 BKN012 PROB40 TEMPO 2200/2208 6000 -RADZ

Decode

Destination Runways

ID Width Length Bearing (true) Bearing (mag) Surface Threshold Offset Overrun Length
05 151 ft / 46 m 8,721 ft / 2,658 m 46.34° 49.00° Asphalt 0 ft / 0 m 499 ft / 152 m
23 151 ft / 46 m 8,721 ft / 2,658 m 226.37° 229.03° Asphalt 1,004 ft / 306 m 0 ft / 0 m

Approach Navaids

Runway Type Ident Frequency Range Bearing (true) Bearing (mag) Slope Elevation
05 Localiser IUU 110.10 MHz 18 nm / 33 km 46.37° 49.03° - 26 ft / 8 m (AMSL)
05 Glidescope IUU 110.10 MHz 10 nm / 19 km 46.36° 49.01° 3.00° 52 ft / 16 m (AMSL)
05 DME IUU 110.10 MHz 18 nm / 33 km - - - 25 ft / 8 m (AMSL)
23 Localiser IOO 110.10 MHz 18 nm / 33 km 226.33° 228.99° - 26 ft / 8 m (AMSL)
23 Glidescope IOO 110.10 MHz 10 nm / 19 km 226.36° 229.01° 3.00° 50 ft / 15 m (AMSL)
23 DME IOO 110.10 MHz 18 nm / 33 km - - - 25 ft / 8 m (AMSL)

Popular Alternatives